Country
Station

 

Weather  for  Menado/Dr. Sam Ratulangi  -  Indonesia    Indonesia

  
28 °C (82 °F)
    
 
 

Current METAR for Menado/Dr. Sam Ratulangi is :

WAMM 210830Z 26007KT 8000 SCT020 28/25 Q1006 NOSIG

 

This is a report for Menado/Dr. Sam Ratulangi - Indonesia.
 
The report was made a moment ago, at 08:30 UTC .
The wind was blowing at a speed of 3.6 meters per second (8.1 miles per hour) from west (260°).
 
The temperature was 28 °C (82 °F), with a dew-point at 25 °C (77 °F).
The temperature felt like 32 °C (90 °F).
 
The atmospheric pressure was 1006 hPa (29.71 inHg).
The relative humidity was 83.8%.
 
There were scattered clouds at a height of 610 meters (2000 feet).
 
The overall visibility was 8.0 kilometers (5.0 miles).
 

 
 
 
 

Country :   A   B   C   D   E   F   G   H   I   J   K   L   M   N   O   P   Q   R   S   T   U   V   W   Y   Z

 

Site Info  |  Disclaimer  |  Credits  |  Privacy
Contact us  |  Add to favorites
© 2013-2019 METARs - All rights reserved